Time;durP1;ratioP1;P1;durP2;ratioP2;P2;SDS_P1;SDS_P2;PMS_P1;PMS_P2;Temp;Humidity;BMP_temperature;BMP_pressure;BME280_temperature;BME280_humidity;BME280_pressure;Samples;Min_cycle;Max_cycle;Signal;HPM_P1;HPM_P2
2022/05/05 00:01:38;;;;;;;8.45;5.03;;;;;;;;;;4806610;29;20034;-79
2022/05/05 00:04:04;;;;;;;8.18;5.68;;;;;;;;;;4819599;29;20504;-84
2022/05/05 00:06:29;;;;;;;10.55;5.65;;;;;;;;;;4807215;29;20042;-85
2022/05/05 00:08:56;;;;;;;9.10;5.45;;;;;;;;;;4822394;29;20030;-85
2022/05/05 00:14:24;;;;;;;8.90;5.97;;;;;;;;;;4816581;29;20057;-85
2022/05/05 00:16:51;;;;;;;9.57;5.88;;;;;;;;;;4822406;29;20026;-80
2022/05/05 00:19:16;;;;;;;11.25;5.20;;;;;;;;;;4811567;29;20058;-78
2022/05/05 00:21:42;;;;;;;8.77;5.25;;;;;;;;;;4824484;29;20035;-85
2022/05/05 00:24:07;;;;;;;8.48;4.93;;;;;;;;;;4821977;29;20049;-84
2022/05/05 00:26:33;;;;;;;9.10;5.07;;;;;;;;;;4824893;29;20048;-80
2022/05/05 00:28:59;;;;;;;10.43;5.18;;;;;;;;;;4806883;29;20038;-79
2022/05/05 00:31:24;;;;;;;8.45;5.13;;;;;;;;;;4815129;29;20046;-83
2022/05/05 00:33:49;;;;;;;8.77;4.85;;;;;;;;;;4823126;29;20034;-80
2022/05/05 00:36:15;;;;;;;9.07;5.20;;;;;;;;;;4822518;29;20041;-85
2022/05/05 00:38:41;;;;;;;8.68;5.07;;;;;;;;;;4811250;29;20079;-79
2022/05/05 00:41:06;;;;;;;8.98;5.25;;;;;;;;;;4800660;29;20045;-79
2022/05/05 00:43:33;;;;;;;7.10;4.97;;;;;;;;;;4800826;29;20039;-84
2022/05/05 00:45:58;;;;;;;9.70;5.60;;;;;;;;;;4800367;29;20039;-83
2022/05/05 00:48:28;;;;;;;10.55;5.68;;;;;;;;;;4790062;29;20042;-85
2022/05/05 00:50:55;;;;;;;9.52;5.70;;;;;;;;;;4787905;29;20043;-84
2022/05/05 00:53:21;;;;;;;10.02;5.88;;;;;;;;;;4804446;29;20101;-83
2022/05/05 00:55:50;;;;;;;9.10;5.63;;;;;;;;;;4791374;29;20038;-79
2022/05/05 00:58:16;;;;;;;12.52;5.75;;;;;;;;;;4804825;29;20136;-84
2022/05/05 01:00:42;;;;;;;9.05;5.75;;;;;;;;;;4790925;29;20125;-82
2022/05/05 01:03:09;;;;;;;10.02;5.95;;;;;;;;;;4803044;29;20035;-80
2022/05/05 01:05:37;;;;;;;12.23;6.22;;;;;;;;;;4803831;29;20038;-84
2022/05/05 01:08:03;;;;;;;9.73;5.93;;;;;;;;;;4785030;29;20038;-84
2022/05/05 01:10:29;;;;;;;12.50;5.80;;;;;;;;;;4800264;29;20038;-84
2022/05/05 01:12:54;;;;;;;10.45;5.75;;;;;;;;;;4800573;29;20030;-85
2022/05/05 01:15:21;;;;;;;11.18;6.22;;;;;;;;;;4797780;29;20920;-85
2022/05/05 01:17:46;;;;;;;9.90;6.22;;;;;;;;;;4802593;29;20049;-85
2022/05/05 01:20:13;;;;;;;10.93;5.80;;;;;;;;;;4787231;29;20034;-84
2022/05/05 01:22:39;;;;;;;9.40;5.55;;;;;;;;;;4797468;29;20084;-84
2022/05/05 01:30:32;;;;;;;11.60;5.90;;;;;;;;;;4798739;29;20340;-81
2022/05/05 01:32:57;;;;;;;10.82;6.28;;;;;;;;;;4779384;29;20054;-85
2022/05/05 01:35:23;;;;;;;11.02;6.07;;;;;;;;;;4782986;29;20030;-79
2022/05/05 01:37:48;;;;;;;9.88;6.18;;;;;;;;;;4796507;29;20141;-84
2022/05/05 01:40:14;;;;;;;10.55;5.90;;;;;;;;;;4798039;29;20474;-84
2022/05/05 01:42:40;;;;;;;9.30;5.43;;;;;;;;;;4798945;29;20106;-84
2022/05/05 01:45:06;;;;;;;9.05;5.50;;;;;;;;;;4817990;29;20039;-79
2022/05/05 01:47:31;;;;;;;10.80;5.68;;;;;;;;;;4800151;29;20119;-79
2022/05/05 01:49:59;;;;;;;10.65;6.35;;;;;;;;;;4802815;29;20025;-80
2022/05/05 01:52:24;;;;;;;9.00;5.55;;;;;;;;;;4804225;29;20424;-83
2022/05/05 01:54:49;;;;;;;9.57;5.90;;;;;;;;;;4815961;29;20157;-84
2022/05/05 01:57:15;;;;;;;8.10;5.32;;;;;;;;;;4801222;29;20030;-84
2022/05/05 01:59:40;;;;;;;9.95;5.88;;;;;;;;;;4797541;29;20091;-78
2022/05/05 02:02:05;;;;;;;9.50;5.57;;;;;;;;;;4818695;29;20062;-84
2022/05/05 02:04:31;;;;;;;9.80;6.15;;;;;;;;;;4805389;29;20065;-79
2022/05/05 02:06:56;;;;;;;9.25;5.55;;;;;;;;;;4815770;29;20091;-80
2022/05/05 02:09:21;;;;;;;10.15;5.82;;;;;;;;;;4803933;29;20402;-85
2022/05/05 02:11:47;;;;;;;10.35;6.70;;;;;;;;;;4802420;29;20030;-85
2022/05/05 02:14:12;;;;;;;10.32;5.47;;;;;;;;;;4818208;29;20052;-84
2022/05/05 02:16:37;;;;;;;11.63;6.47;;;;;;;;;;4803379;29;22205;-79
2022/05/05 02:19:03;;;;;;;8.93;5.15;;;;;;;;;;4799227;29;20036;-80
2022/05/05 02:21:28;;;;;;;8.43;5.68;;;;;;;;;;4801302;29;20026;-80
2022/05/05 02:23:53;;;;;;;11.20;5.80;;;;;;;;;;4800046;29;20038;-84
2022/05/05 02:26:18;;;;;;;10.27;6.18;;;;;;;;;;4800444;29;20042;-83
2022/05/05 02:28:44;;;;;;;9.68;5.47;;;;;;;;;;4804304;29;20408;-85
2022/05/05 02:31:09;;;;;;;9.48;5.65;;;;;;;;;;4803358;29;20065;-79
2022/05/05 02:33:34;;;;;;;9.73;5.63;;;;;;;;;;4802595;29;20038;-79
2022/05/05 02:38:44;;;;;;;11.57;6.28;;;;;;;;;;4819276;29;20060;-79
2022/05/05 02:41:10;;;;;;;11.75;6.07;;;;;;;;;;4802518;29;20038;-83
2022/05/05 02:43:35;;;;;;;9.40;6.13;;;;;;;;;;4811822;29;20135;-84
2022/05/05 02:46:00;;;;;;;10.88;6.22;;;;;;;;;;4814101;29;20071;-84
2022/05/05 02:48:26;;;;;;;11.48;6.63;;;;;;;;;;4800747;29;20697;-79
2022/05/05 02:50:51;;;;;;;12.15;6.72;;;;;;;;;;4816537;29;20493;-84
2022/05/05 02:56:00;;;;;;;9.18;6.18;;;;;;;;;;4817838;29;20114;-86
2022/05/05 02:58:28;;;;;;;12.38;5.90;;;;;;;;;;4812948;29;20050;-80
2022/05/05 03:00:54;;;;;;;11.13;5.93;;;;;;;;;;4808140;29;20034;-79
2022/05/05 03:03:19;;;;;;;11.35;5.90;;;;;;;;;;4799128;29;20082;-86
2022/05/05 03:05:44;;;;;;;9.25;6.20;;;;;;;;;;4818107;29;20086;-85
2022/05/05 03:08:10;;;;;;;12.02;6.63;;;;;;;;;;4805821;29;20421;-83
2022/05/05 03:10:35;;;;;;;10.40;6.45;;;;;;;;;;4811735;29;20129;-84
2022/05/05 03:13:00;;;;;;;9.80;5.82;;;;;;;;;;4814287;29;20134;-86
2022/05/05 03:15:26;;;;;;;9.45;5.95;;;;;;;;;;4817640;29;20469;-85
2022/05/05 03:17:51;;;;;;;10.38;5.93;;;;;;;;;;4799742;29;20042;-80
2022/05/05 03:20:16;;;;;;;11.60;6.07;;;;;;;;;;4801572;29;20026;-79
2022/05/05 03:22:42;;;;;;;10.65;6.55;;;;;;;;;;4813362;29;20676;-79
2022/05/05 03:25:07;;;;;;;11.13;6.47;;;;;;;;;;4796948;29;20435;-79
2022/05/05 03:27:35;;;;;;;10.82;6.40;;;;;;;;;;4818668;29;20041;-85
2022/05/05 03:30:01;;;;;;;10.80;5.97;;;;;;;;;;4801241;29;20031;-80
2022/05/05 03:32:28;;;;;;;12.85;6.95;;;;;;;;;;4816144;29;20034;-84
2022/05/05 03:34:54;;;;;;;11.02;5.97;;;;;;;;;;4814229;29;20042;-80
2022/05/05 03:37:19;;;;;;;9.93;6.20;;;;;;;;;;4798357;29;20046;-83
2022/05/05 03:39:45;;;;;;;10.93;6.57;;;;;;;;;;4815130;29;20481;-78
2022/05/05 03:42:10;;;;;;;12.18;6.95;;;;;;;;;;4799601;29;20046;-79
2022/05/05 03:44:35;;;;;;;11.10;6.60;;;;;;;;;;4805393;29;20042;-79
2022/05/05 03:47:01;;;;;;;12.13;6.80;;;;;;;;;;4801171;29;20034;-78
2022/05/05 03:49:26;;;;;;;10.45;6.80;;;;;;;;;;4819193;29;20082;-80
2022/05/05 03:51:52;;;;;;;10.68;6.35;;;;;;;;;;4810616;29;20034;-82
2022/05/05 03:54:17;;;;;;;10.30;6.20;;;;;;;;;;4802043;29;20041;-81
2022/05/05 03:56:44;;;;;;;9.90;6.20;;;;;;;;;;4814442;29;20490;-79
2022/05/05 03:59:09;;;;;;;9.68;6.35;;;;;;;;;;4814195;29;20061;-84
2022/05/05 04:01:34;;;;;;;10.68;6.90;;;;;;;;;;4816506;29;20521;-79
2022/05/05 04:04:00;;;;;;;11.32;6.65;;;;;;;;;;4803225;29;20026;-79
2022/05/05 04:06:25;;;;;;;11.70;6.78;;;;;;;;;;4802823;29;20044;-79
2022/05/05 04:08:50;;;;;;;9.80;6.13;;;;;;;;;;4812950;29;20483;-84
2022/05/05 04:11:16;;;;;;;10.55;6.55;;;;;;;;;;4816795;29;20041;-85
2022/05/05 04:13:41;;;;;;;9.75;6.07;;;;;;;;;;4810885;29;20075;-85
2022/05/05 04:16:07;;;;;;;10.23;6.55;;;;;;;;;;4816685;29;20549;-83
2022/05/05 04:18:33;;;;;;;9.93;6.35;;;;;;;;;;4815925;29;20057;-83
2022/05/05 04:20:59;;;;;;;10.10;6.30;;;;;;;;;;4816319;29;20149;-85
2022/05/05 04:23:24;;;;;;;10.98;7.15;;;;;;;;;;4811428;29;20053;-84
2022/05/05 04:25:50;;;;;;;9.15;6.47;;;;;;;;;;4802399;29;20034;-84
2022/05/05 04:28:15;;;;;;;13.40;7.05;;;;;;;;;;4797204;29;20732;-79
2022/05/05 04:30:41;;;;;;;11.63;6.70;;;;;;;;;;4799891;29;20461;-80
2022/05/05 04:33:09;;;;;;;11.70;7.43;;;;;;;;;;4812256;29;20420;-80
2022/05/05 04:35:39;;;;;;;12.35;6.93;;;;;;;;;;4802632;29;20038;-80
2022/05/05 04:38:05;;;;;;;13.27;7.43;;;;;;;;;;4811444;29;20058;-85
2022/05/05 04:40:31;;;;;;;12.98;7.38;;;;;;;;;;4800628;29;20045;-83
2022/05/05 04:42:57;;;;;;;11.60;7.07;;;;;;;;;;4812132;29;20115;-83
2022/05/05 04:45:22;;;;;;;11.45;7.03;;;;;;;;;;4819966;29;20470;-85
2022/05/05 04:47:48;;;;;;;13.65;7.63;;;;;;;;;;4815562;29;20115;-80
2022/05/05 04:50:14;;;;;;;12.65;7.75;;;;;;;;;;4800059;29;20042;-83
2022/05/05 04:52:39;;;;;;;10.20;7.10;;;;;;;;;;4816355;29;20115;-79
2022/05/05 04:55:05;;;;;;;14.50;7.93;;;;;;;;;;4816420;29;20031;-80
2022/05/05 04:57:30;;;;;;;12.88;7.88;;;;;;;;;;4813590;29;20045;-84
2022/05/05 04:59:55;;;;;;;10.88;7.43;;;;;;;;;;4819925;29;20043;-85
2022/05/05 05:02:21;;;;;;;14.50;8.32;;;;;;;;;;4806178;29;20031;-79
2022/05/05 05:04:46;;;;;;;12.95;8.15;;;;;;;;;;4804255;29;20123;-83
2022/05/05 05:07:11;;;;;;;12.50;7.22;;;;;;;;;;4802799;29;20069;-85
2022/05/05 05:09:37;;;;;;;12.95;7.65;;;;;;;;;;4814358;29;20053;-83
2022/05/05 05:12:03;;;;;;;12.55;7.60;;;;;;;;;;4815781;29;20035;-79
2022/05/05 05:14:28;;;;;;;11.90;7.05;;;;;;;;;;4803339;29;20042;-79
2022/05/05 05:16:53;;;;;;;13.80;7.47;;;;;;;;;;4818057;29;20037;-85
2022/05/05 05:19:19;;;;;;;13.80;7.78;;;;;;;;;;4808310;29;20515;-83
2022/05/05 05:21:45;;;;;;;11.68;6.78;;;;;;;;;;4804678;29;20549;-80
2022/05/05 05:24:10;;;;;;;11.93;7.13;;;;;;;;;;4808115;29;20050;-79
2022/05/05 05:26:36;;;;;;;11.57;6.32;;;;;;;;;;4815065;29;20042;-78
2022/05/05 05:29:01;;;;;;;11.13;6.97;;;;;;;;;;4818989;29;20489;-80
2022/05/05 05:31:28;;;;;;;11.30;6.95;;;;;;;;;;4816765;29;20497;-79
2022/05/05 05:33:54;;;;;;;11.70;6.78;;;;;;;;;;4818490;29;20106;-85
2022/05/05 05:36:19;;;;;;;10.30;6.28;;;;;;;;;;4806479;29;20079;-79
2022/05/05 05:38:45;;;;;;;12.23;6.82;;;;;;;;;;4803102;29;20054;-83
2022/05/05 05:41:10;;;;;;;12.38;6.80;;;;;;;;;;4819314;29;20485;-83
2022/05/05 05:43:36;;;;;;;12.00;6.57;;;;;;;;;;4808608;29;20071;-85
2022/05/05 05:46:01;;;;;;;12.13;7.18;;;;;;;;;;4818270;29;20045;-79
2022/05/05 05:48:26;;;;;;;13.43;7.07;;;;;;;;;;4820534;29;20042;-85
2022/05/05 05:50:52;;;;;;;13.95;7.40;;;;;;;;;;4820077;29;20026;-83
2022/05/05 05:53:17;;;;;;;14.20;8.05;;;;;;;;;;4801451;29;20052;-85
2022/05/05 05:55:43;;;;;;;12.65;7.43;;;;;;;;;;4818758;29;20379;-79
2022/05/05 05:58:10;;;;;;;12.40;7.65;;;;;;;;;;4808613;29;20373;-83
2022/05/05 06:00:36;;;;;;;13.27;7.47;;;;;;;;;;4789289;29;20043;-83
2022/05/05 06:05:45;;;;;;;13.77;7.40;;;;;;;;;;4819657;29;20569;-84
2022/05/05 06:08:11;;;;;;;14.65;8.55;;;;;;;;;;4818146;29;20034;-80
2022/05/05 06:10:36;;;;;;;14.63;7.97;;;;;;;;;;4806407;29;20042;-83
2022/05/05 06:13:03;;;;;;;14.95;7.43;;;;;;;;;;4802470;29;20022;-80
2022/05/05 06:15:28;;;;;;;13.40;7.90;;;;;;;;;;4806984;29;20031;-79
2022/05/05 06:17:54;;;;;;;14.13;7.45;;;;;;;;;;4821476;29;20034;-83
2022/05/05 06:20:19;;;;;;;14.38;7.20;;;;;;;;;;4804567;29;20409;-79
2022/05/05 06:22:45;;;;;;;12.00;7.28;;;;;;;;;;4821865;29;20038;-78
2022/05/05 06:25:11;;;;;;;12.52;7.00;;;;;;;;;;4823337;29;20030;-85
2022/05/05 06:27:37;;;;;;;10.73;6.15;;;;;;;;;;4805356;29;20065;-78
2022/05/05 06:30:09;;;;;;;12.93;6.15;;;;;;;;;;4812035;29;20396;-78
2022/05/05 06:32:35;;;;;;;9.02;5.35;;;;;;;;;;4800456;29;20086;-84
2022/05/05 06:35:00;;;;;;;9.98;5.22;;;;;;;;;;4801629;29;20065;-83
2022/05/05 06:37:26;;;;;;;9.18;5.13;;;;;;;;;;4818348;29;20740;-83
2022/05/05 06:39:51;;;;;;;9.50;4.72;;;;;;;;;;4822631;29;20051;-85
2022/05/05 06:42:17;;;;;;;8.77;5.50;;;;;;;;;;4799603;29;20042;-78
2022/05/05 06:44:42;;;;;;;8.00;4.93;;;;;;;;;;4796192;29;20030;-78
2022/05/05 06:47:08;;;;;;;10.52;5.15;;;;;;;;;;4803272;29;20473;-83
2022/05/05 06:49:34;;;;;;;10.00;4.95;;;;;;;;;;4816743;29;20034;-85
2022/05/05 06:51:59;;;;;;;9.52;5.40;;;;;;;;;;4814114;29;20030;-82
2022/05/05 06:54:28;;;;;;;9.73;4.95;;;;;;;;;;4807918;29;20489;-79
2022/05/05 06:56:57;;;;;;;10.32;4.93;;;;;;;;;;4810230;29;20038;-80
2022/05/05 06:59:22;;;;;;;8.93;4.70;;;;;;;;;;4797481;29;20164;-83
2022/05/05 07:01:56;;;;;;;10.55;5.45;;;;;;;;;;4811218;29;20185;-79
2022/05/05 07:07:13;;;;;;;10.48;5.88;;;;;;;;;;4818278;29;20451;-80
2022/05/05 07:12:23;;;;;;;12.13;6.93;;;;;;;;;;4816617;29;20038;-82
2022/05/05 07:14:48;;;;;;;15.18;7.07;;;;;;;;;;4817189;29;20030;-83
2022/05/05 07:17:14;;;;;;;14.52;6.60;;;;;;;;;;4800459;29;20030;-80
2022/05/05 07:19:39;;;;;;;13.40;6.70;;;;;;;;;;4814806;29;20061;-83
2022/05/05 07:22:05;;;;;;;14.02;7.22;;;;;;;;;;4814690;29;20027;-79
2022/05/05 07:24:31;;;;;;;10.68;5.95;;;;;;;;;;4819166;29;20026;-83
2022/05/05 07:26:57;;;;;;;10.63;6.20;;;;;;;;;;4820290;29;20072;-80
2022/05/05 07:29:22;;;;;;;13.60;7.13;;;;;;;;;;4816085;29;20129;-79
2022/05/05 07:31:47;;;;;;;12.10;6.80;;;;;;;;;;4816390;29;20042;-80
2022/05/05 07:34:13;;;;;;;13.30;6.95;;;;;;;;;;4795177;29;20131;-79
2022/05/05 07:36:38;;;;;;;14.52;7.60;;;;;;;;;;4810206;29;20031;-82
2022/05/05 07:39:05;;;;;;;12.80;7.68;;;;;;;;;;4806930;29;20082;-79
2022/05/05 07:41:31;;;;;;;16.58;9.20;;;;;;;;;;4800150;29;20030;-81
2022/05/05 07:44:01;;;;;;;17.25;8.52;;;;;;;;;;4800102;29;20031;-80
2022/05/05 07:46:27;;;;;;;15.27;8.05;;;;;;;;;;4793578;29;20038;-83
2022/05/05 07:48:54;;;;;;;16.88;9.65;;;;;;;;;;4816214;29;20139;-83
2022/05/05 07:51:19;;;;;;;15.65;8.90;;;;;;;;;;4797845;29;20039;-80
2022/05/05 07:54:34;;;;;;;20.38;9.75;;;;;;;;;;4800075;29;20061;-79
2022/05/05 07:56:33;;;;;;;18.52;10.70;;;;;;;;;;4812483;29;20049;-82
2022/05/05 07:58:59;;;;;;;18.15;10.02;;;;;;;;;;4799397;29;20034;-78
2022/05/05 08:01:26;;;;;;;22.85;11.30;;;;;;;;;;4811275;29;20054;-79
2022/05/05 08:03:52;;;;;;;17.90;11.13;;;;;;;;;;4800989;29;20034;-83
2022/05/05 08:06:18;;;;;;;20.88;11.85;;;;;;;;;;4792074;29;20068;-79
2022/05/05 08:08:43;;;;;;;21.23;11.45;;;;;;;;;;4814143;29;20062;-79
2022/05/05 08:11:14;;;;;;;18.83;11.18;;;;;;;;;;4794865;29;20022;-82
2022/05/05 08:13:42;;;;;;;20.60;11.50;;;;;;;;;;4808973;29;20034;-80
2022/05/05 08:16:07;;;;;;;18.30;11.63;;;;;;;;;;4794590;29;20037;-83
2022/05/05 08:18:38;;;;;;;25.63;12.63;;;;;;;;;;4801674;29;20038;-82
2022/05/05 08:21:09;;;;;;;22.58;12.05;;;;;;;;;;4814283;29;20038;-80
2022/05/05 08:23:34;;;;;;;20.42;11.80;;;;;;;;;;4814307;29;20049;-86
2022/05/05 08:28:43;;;;;;;20.35;12.60;;;;;;;;;;4816756;29;20520;-80
2022/05/05 08:31:12;;;;;;;24.38;13.35;;;;;;;;;;4802596;29;20034;-85
2022/05/05 08:33:47;;;;;;;21.25;12.50;;;;;;;;;;4819383;29;20033;-83
2022/05/05 08:36:15;;;;;;;22.45;12.07;;;;;;;;;;4804644;29;20058;-80
2022/05/05 08:38:46;;;;;;;22.23;12.55;;;;;;;;;;4820229;29;20505;-84
2022/05/05 08:41:20;;;;;;;23.63;12.65;;;;;;;;;;4807901;29;20049;-83
2022/05/05 08:43:46;;;;;;;22.02;13.27;;;;;;;;;;4822334;29;20057;-83
2022/05/05 08:46:22;;;;;;;22.17;13.15;;;;;;;;;;4808113;29;20026;-82
2022/05/05 08:48:49;;;;;;;25.33;13.23;;;;;;;;;;4820298;29;20053;-85
2022/05/05 08:51:18;;;;;;;25.13;14.18;;;;;;;;;;4808474;29;20129;-80
2022/05/05 08:53:52;;;;;;;24.00;14.18;;;;;;;;;;4821504;29;20084;-80
2022/05/05 08:56:21;;;;;;;26.60;14.88;;;;;;;;;;4802531;29;20038;-82
2022/05/05 08:58:47;;;;;;;28.25;15.13;;;;;;;;;;4814592;29;20026;-79
2022/05/05 09:01:15;;;;;;;27.13;15.40;;;;;;;;;;4816082;29;20514;-85
2022/05/05 09:03:42;;;;;;;28.70;15.60;;;;;;;;;;4799888;29;20037;-83
2022/05/05 09:06:16;;;;;;;28.77;16.00;;;;;;;;;;4805092;29;20034;-84
2022/05/05 09:08:44;;;;;;;26.73;15.95;;;;;;;;;;4802152;29;20030;-83
2022/05/05 09:11:17;;;;;;;30.35;16.05;;;;;;;;;;4797605;29;20091;-87
2022/05/05 09:13:43;;;;;;;27.73;16.48;;;;;;;;;;4801595;29;20140;-82
2022/05/05 09:16:22;;;;;;;29.67;16.42;;;;;;;;;;4815710;29;20146;-81
2022/05/05 09:18:54;;;;;;;27.13;15.55;;;;;;;;;;4812677;29;20043;-85
2022/05/05 09:21:34;;;;;;;25.02;15.75;;;;;;;;;;4801778;29;20054;-83
2022/05/05 09:26:57;;;;;;;25.40;15.52;;;;;;;;;;4817974;29;20044;-79
2022/05/05 09:29:23;;;;;;;27.80;14.80;;;;;;;;;;4815086;29;20030;-83
2022/05/05 09:31:50;;;;;;;28.65;16.80;;;;;;;;;;4799676;29;20093;-82
2022/05/05 09:34:26;;;;;;;24.42;14.88;;;;;;;;;;4800523;29;20040;-79
2022/05/05 09:37:30;;;;;;;26.77;15.43;;;;;;;;;;4809477;29;20030;-83
2022/05/05 09:39:56;;;;;;;28.02;15.10;;;;;;;;;;4800453;29;20046;-82
2022/05/05 09:42:36;;;;;;;28.27;16.48;;;;;;;;;;4799894;29;20117;-82
2022/05/05 09:45:37;;;;;;;24.75;14.40;;;;;;;;;;4811580;29;20034;-83
2022/05/05 09:48:03;;;;;;;24.80;14.40;;;;;;;;;;4785175;29;20050;-80
2022/05/05 09:50:31;;;;;;;25.48;14.82;;;;;;;;;;4810910;29;20065;-79
2022/05/05 09:58:39;;;;;;;26.33;15.75;;;;;;;;;;4816885;29;20086;-84
2022/05/05 10:01:10;;;;;;;26.13;16.30;;;;;;;;;;4797647;29;20121;-80
2022/05/05 10:04:03;;;;;;;27.13;15.52;;;;;;;;;;4797708;29;20073;-79
2022/05/05 10:06:35;;;;;;;24.23;14.57;;;;;;;;;;4813094;29;20492;-85
2022/05/05 10:12:32;;;;;;;27.58;15.57;;;;;;;;;;4753759;30;20036;-81
2022/05/05 10:15:04;;;;;;;25.98;16.17;;;;;;;;;;4753743;30;20511;-81
2022/05/05 10:17:46;;;;;;;;;;;;;;;;;;;;;
2022/05/05 10:21:13;;;;;;;;;;;;;;;;;;;;;
2022/05/05 10:24:37;;;;;;;29.08;16.33;;;;;;;;;;4704115;30;20045;-83
2022/05/05 10:28:15;;;;;;;;;;;;;;;;;;;;;
2022/05/05 10:34:06;;;;;;;22.25;12.98;;;;;;;;;;4712355;30;20081;-84
2022/05/05 10:36:38;;;;;;;24.85;14.00;;;;;;;;;;4708503;30;20673;-83
2022/05/05 10:43:09;;;;;;;20.42;13.02;;;;;;;;;;4716054;30;20098;-83
2022/05/05 10:45:38;;;;;;;26.10;13.05;;;;;;;;;;4721317;30;20142;-86
2022/05/05 10:48:08;;;;;;;21.52;12.70;;;;;;;;;;4730813;30;20040;-82
2022/05/05 10:51:09;;;;;;;23.23;13.65;;;;;;;;;;4740760;29;20134;-81
2022/05/05 11:00:42;;;;;;;24.50;14.73;;;;;;;;;;4730009;30;20839;-85
2022/05/05 11:03:10;;;;;;;28.02;14.95;;;;;;;;;;4720883;30;20036;-83
2022/05/05 11:06:10;;;;;;;24.85;15.50;;;;;;;;;;4719569;30;20065;-81
2022/05/05 11:09:13;;;;;;;24.88;14.93;;;;;;;;;;4711626;30;20178;-83
2022/05/05 11:11:41;;;;;;;24.77;15.25;;;;;;;;;;4719746;30;20048;-84
2022/05/05 11:24:45;;;;;;;26.30;14.65;;;;;;;;;;4722917;30;20662;-82
2022/05/05 11:27:15;;;;;;;21.67;13.45;;;;;;;;;;4725927;30;20204;-83
2022/05/05 11:30:19;;;;;;;21.23;14.57;;;;;;;;;;4721359;30;20265;-79
2022/05/05 11:32:45;;;;;;;21.23;14.25;;;;;;;;;;4772900;29;20039;-81
2022/05/05 11:36:17;;;;;;;23.73;13.85;;;;;;;;;;4759865;30;20122;-82
2022/05/05 11:38:45;;;;;;;22.17;13.77;;;;;;;;;;4804537;24;20054;-81
2022/05/05 11:41:29;;;;;;;;;;;;;;;;;;;;;
2022/05/05 11:44:17;;;;;;;24.65;12.68;;;;;;;;;;4823732;29;20427;-83
2022/05/05 11:46:46;;;;;;;24.05;13.98;;;;;;;;;;4817052;29;20030;-82
2022/05/05 11:49:18;;;;;;;26.27;15.00;;;;;;;;;;4814221;29;20030;-81
2022/05/05 11:51:51;;;;;;;25.40;15.30;;;;;;;;;;4829364;29;20132;-81
2022/05/05 11:54:50;;;;;;;23.75;14.27;;;;;;;;;;4825569;29;20042;-81
2022/05/05 11:57:53;;;;;;;23.63;13.75;;;;;;;;;;4800287;29;20715;-81
2022/05/05 12:04:22;;;;;;;21.95;12.80;;;;;;;;;;4773212;29;20050;-83
2022/05/05 12:06:50;;;;;;;22.83;12.15;;;;;;;;;;4775249;30;20093;-80
2022/05/05 12:09:22;;;;;;;20.77;11.73;;;;;;;;;;4763893;30;20042;-85
2022/05/05 12:11:58;;;;;;;18.08;11.20;;;;;;;;;;4761812;30;20054;-80
2022/05/05 12:14:23;;;;;;;19.33;11.43;;;;;;;;;;4776334;30;20035;-82
2022/05/05 12:19:53;;;;;;;20.75;12.10;;;;;;;;;;4831304;29;20113;-83
2022/05/05 12:23:04;;;;;;;;;;;;;;;;;;;;;
2022/05/05 12:26:09;;;;;;;;;;;;;;;;;;;;;
2022/05/05 12:28:53;;;;;;;22.60;12.93;;;;;;;;;;4726722;30;20036;-81
2022/05/05 12:31:28;;;;;;;20.73;12.95;;;;;;;;;;4712242;30;20048;-84
2022/05/05 12:33:54;;;;;;;26.83;15.70;;;;;;;;;;4766582;29;21544;-80
2022/05/05 12:39:25;;;;;;;26.73;16.02;;;;;;;;;;4926058;24;20118;-83
2022/05/05 12:42:46;;;;;;;;;;;;;;;;;;;;;
2022/05/05 12:44:59;;;;;;;25.92;15.48;;;;;;;;;;4825265;29;20042;-84
2022/05/05 12:47:27;;;;;;;24.05;14.00;;;;;;;;;;4816042;29;20169;-83
2022/05/05 12:50:28;;;;;;;22.33;14.10;;;;;;;;;;4818068;29;20045;-83
2022/05/05 13:02:30;;;;;;;28.73;15.90;;;;;;;;;;4831069;29;20425;-81
2022/05/05 13:04:59;;;;;;;23.13;14.82;;;;;;;;;;4824213;29;20042;-82
2022/05/05 13:07:30;;;;;;;23.40;15.30;;;;;;;;;;4825408;29;20485;-82
2022/05/05 13:13:02;;;;;;;24.38;14.52;;;;;;;;;;4833118;29;20147;-81
2022/05/05 13:15:33;;;;;;;20.10;13.63;;;;;;;;;;4837001;29;20038;-83
2022/05/05 13:18:03;;;;;;;23.02;14.55;;;;;;;;;;4842651;29;20086;-82
2022/05/05 13:20:33;;;;;;;26.08;15.88;;;;;;;;;;4824198;29;20033;-81
2022/05/05 13:23:02;;;;;;;25.90;15.30;;;;;;;;;;4821602;29;20041;-81
2022/05/05 13:25:33;;;;;;;24.77;14.45;;;;;;;;;;4838028;29;20073;-81
2022/05/05 13:28:07;;;;;;;21.55;14.05;;;;;;;;;;4827141;29;20202;-82
2022/05/05 13:30:35;;;;;;;22.73;14.48;;;;;;;;;;4821511;29;20040;-81
2022/05/05 13:33:04;;;;;;;24.45;15.15;;;;;;;;;;4827083;29;20040;-83
2022/05/05 13:35:36;;;;;;;24.63;14.05;;;;;;;;;;4816006;29;20039;-83
2022/05/05 13:38:06;;;;;;;20.42;13.02;;;;;;;;;;4847296;29;20069;-83
2022/05/05 13:40:35;;;;;;;22.50;14.30;;;;;;;;;;4844364;29;20852;-80
2022/05/05 13:43:07;;;;;;;20.98;13.25;;;;;;;;;;4838749;29;20477;-82
2022/05/05 13:45:40;;;;;;;21.83;13.77;;;;;;;;;;4824435;29;20444;-81
2022/05/05 13:48:08;;;;;;;18.83;12.10;;;;;;;;;;4819633;29;20034;-83
2022/05/05 13:50:38;;;;;;;16.48;10.70;;;;;;;;;;4818954;29;20031;-82
2022/05/05 13:53:06;;;;;;;21.33;13.20;;;;;;;;;;4825639;29;20018;-80
2022/05/05 13:55:38;;;;;;;21.67;13.45;;;;;;;;;;4820781;29;20552;-83
2022/05/05 13:58:10;;;;;;;18.13;11.55;;;;;;;;;;4840656;29;20029;-82
2022/05/05 14:00:39;;;;;;;18.58;12.18;;;;;;;;;;4823899;29;20079;-83
2022/05/05 14:03:11;;;;;;;20.92;13.20;;;;;;;;;;4816402;29;20065;-82
2022/05/05 14:05:40;;;;;;;18.80;11.77;;;;;;;;;;4833408;29;20302;-81
2022/05/05 14:14:43;;;;;;;15.38;10.10;;;;;;;;;;4832925;29;20508;-82
2022/05/05 14:17:13;;;;;;;15.68;11.02;;;;;;;;;;4814935;29;20042;-82
2022/05/05 14:19:43;;;;;;;18.52;11.02;;;;;;;;;;4816428;29;20045;-83
2022/05/05 14:22:11;;;;;;;17.38;10.88;;;;;;;;;;4824058;29;20034;-83
2022/05/05 14:24:43;;;;;;;16.85;11.27;;;;;;;;;;4816999;29;20124;-81
2022/05/05 14:27:25;;;;;;;;;;;;;;;;;;;;;
2022/05/05 14:30:46;;;;;;;15.20;10.65;;;;;;;;;;4837103;29;20057;-83
2022/05/05 14:33:16;;;;;;;14.77;9.83;;;;;;;;;;4750071;30;20039;-82
2022/05/05 14:35:44;;;;;;;14.60;11.18;;;;;;;;;;4763831;30;20048;-80
2022/05/05 15:10:53;;;;;;;16.50;10.88;;;;;;;;;;506304;27;20359;-81
2022/05/05 15:13:22;;;;;;;16.63;11.68;;;;;;;;;;4797740;29;20156;-80
2022/05/05 15:15:51;;;;;;;14.73;10.23;;;;;;;;;;4796929;29;20501;-81
2022/05/05 15:18:33;;;;;;;;;;;;;;;;;;;;;
2022/05/05 15:21:34;;;;;;;;;;;;;;;;;;;;;
2022/05/05 15:24:23;;;;;;;15.82;10.95;;;;;;;;;;4798836;29;20053;-81
2022/05/05 15:26:51;;;;;;;16.55;11.32;;;;;;;;;;4787376;29;20524;-81
2022/05/05 15:29:28;;;;;;;14.38;11.30;;;;;;;;;;4787070;29;20031;-81
2022/05/05 15:31:54;;;;;;;13.68;9.88;;;;;;;;;;4798177;29;20437;-82
2022/05/05 15:34:58;;;;;;;14.38;11.85;;;;;;;;;;4800139;29;20060;-80
2022/05/05 16:40:03;;;;;;;13.23;9.57;;;;;;;;;;1717221;24;21046;-81
2022/05/05 16:43:07;;;;;;;14.40;9.57;;;;;;;;;;4813773;29;20061;-82
2022/05/05 16:45:37;;;;;;;;;;;;;;;;;;4814037;29;20492;-81
2022/05/05 16:48:05;;;;;;;10.50;7.90;;;;;;;;;;4810440;29;19925;-82
2022/05/05 16:50:50;;;;;;;;;;;;;;;;;;;;;
2022/05/05 16:53:40;;;;;;;14.75;10.60;;;;;;;;;;4782362;29;20051;-81
2022/05/05 16:56:08;;;;;;;14.40;9.88;;;;;;;;;;4765240;29;20051;-81
2022/05/05 16:58:36;;;;;;;14.30;11.02;;;;;;;;;;4778574;29;20057;-82
2022/05/05 17:01:38;;;;;;;13.45;10.50;;;;;;;;;;4764922;29;20058;-81
2022/05/05 17:04:39;;;;;;;14.57;9.60;;;;;;;;;;4728761;30;20098;-84
2022/05/05 17:07:38;;;;;;;12.25;9.10;;;;;;;;;;4727026;30;20151;-81
2022/05/05 17:10:12;;;;;;;10.65;8.63;;;;;;;;;;4687855;30;20125;-84
2022/05/05 17:13:10;;;;;;;13.23;9.75;;;;;;;;;;4665686;30;20051;-82
2022/05/05 17:15:35;;;;;;;13.07;10.25;;;;;;;;;;4642338;30;20054;-83
2022/05/05 17:18:02;;;;;;;16.52;10.32;;;;;;;;;;4693070;29;20054;-82
2022/05/05 17:20:31;;;;;;;15.07;10.43;;;;;;;;;;4851626;29;20041;-83
2022/05/05 17:22:57;;;;;;;14.35;10.48;;;;;;;;;;4835292;29;20037;-81
2022/05/05 17:25:25;;;;;;;14.60;10.65;;;;;;;;;;4851094;29;20650;-83
2022/05/05 17:27:51;;;;;;;15.40;11.07;;;;;;;;;;4853452;29;20033;-81
2022/05/05 17:30:19;;;;;;;18.70;11.38;;;;;;;;;;4852974;29;20394;-83
2022/05/05 17:32:45;;;;;;;14.98;10.18;;;;;;;;;;4838155;29;20033;-81
2022/05/05 17:35:10;;;;;;;13.73;10.55;;;;;;;;;;4844720;29;20481;-83
2022/05/05 17:37:35;;;;;;;14.60;10.70;;;;;;;;;;4835103;29;20105;-85
2022/05/05 17:40:02;;;;;;;13.50;10.32;;;;;;;;;;4838647;29;20083;-82
2022/05/05 17:42:27;;;;;;;15.10;10.90;;;;;;;;;;4836980;29;20045;-84
2022/05/05 17:50:36;;;;;;;15.23;10.27;;;;;;;;;;4835841;29;20132;-82
2022/05/05 17:53:07;;;;;;;16.83;10.70;;;;;;;;;;4842229;29;20033;-83
2022/05/05 17:55:34;;;;;;;14.55;11.15;;;;;;;;;;4837831;29;20040;-82
2022/05/05 17:58:01;;;;;;;14.95;10.50;;;;;;;;;;4828407;29;20121;-83
2022/05/05 18:00:33;;;;;;;16.83;10.60;;;;;;;;;;4844349;29;20417;-82
2022/05/05 18:03:00;;;;;;;16.30;11.25;;;;;;;;;;4842007;29;20647;-82
2022/05/05 18:05:26;;;;;;;15.52;10.90;;;;;;;;;;4841432;29;20468;-82
2022/05/05 18:07:53;;;;;;;17.35;12.00;;;;;;;;;;4844760;29;20037;-82
2022/05/05 18:10:19;;;;;;;17.33;12.50;;;;;;;;;;4828552;29;20061;-83